createdAt,value
2023-03-01T00:00:55.842Z,102297.56
2023-03-01T00:06:44.059Z,102297.94
2023-03-01T00:09:21.795Z,102302.69
2023-03-01T00:12:25.408Z,102289.91
2023-03-01T00:19:00.071Z,102284.47
2023-03-01T00:25:56.632Z,102278.75
2023-03-01T00:28:57.373Z,102278.50
2023-03-01T00:42:40.476Z,102275.56
2023-03-01T00:45:32.062Z,102268.88
2023-03-01T00:48:46.760Z,102275.16
2023-03-01T00:52:08.518Z,102260.53
2023-03-01T00:59:24.926Z,102265.16
2023-03-01T01:03:01.179Z,102262.28
2023-03-01T01:05:55.806Z,102258.28
2023-03-01T01:09:15.677Z,102258.28
2023-03-01T01:12:45.092Z,102258.94
2023-03-01T01:27:37.786Z,102239.75
2023-03-01T01:39:23.268Z,102214.88
2023-03-01T01:45:39.128Z,102213.06
2023-03-01T01:53:40.935Z,102208.78
2023-03-01T01:56:47.367Z,102218.66
2023-03-01T02:03:00.552Z,102223.56
2023-03-01T02:13:17.322Z,102226.81
2023-03-01T02:16:55.426Z,102232.94
2023-03-01T02:24:40.599Z,102233.19
2023-03-01T02:32:33.759Z,102227.19
2023-03-01T02:36:05.186Z,102226.81
2023-03-01T02:43:55.203Z,102232.09
2023-03-01T02:50:45.315Z,102225.69
2023-03-01T02:54:36.681Z,102219.41
2023-03-01T02:57:25.659Z,102213.00
2023-03-01T03:00:22.206Z,102210.97
2023-03-01T03:03:42.207Z,102207.50
2023-03-01T03:07:00.151Z,102199.28
2023-03-01T03:10:33.791Z,102201.44
2023-03-01T03:13:54.494Z,102203.63
2023-03-01T03:20:11.227Z,102206.19
2023-03-01T03:23:06.340Z,102207.84
2023-03-01T03:30:08.340Z,102205.84
2023-03-01T03:40:02.362Z,102190.41
2023-03-01T03:47:35.287Z,102183.91
2023-03-01T03:50:54.072Z,102178.78
2023-03-01T03:57:07.249Z,102173.66
2023-03-01T04:04:12.141Z,102174.66
2023-03-01T04:15:04.705Z,102166.34
2023-03-01T04:18:51.334Z,102170.69
2023-03-01T04:22:27.634Z,102175.81
2023-03-01T04:25:30.165Z,102183.03
2023-03-01T04:32:31.530Z,102170.47
2023-03-01T04:36:07.578Z,102166.75
2023-03-01T04:39:26.649Z,102178.16
2023-03-01T04:46:31.113Z,102169.06
2023-03-01T04:51:06.290Z,102158.56
2023-03-01T04:54:29.365Z,102161.88
2023-03-01T04:58:07.412Z,102161.75
2023-03-01T05:02:08.716Z,102169.84
2023-03-01T05:05:11.969Z,102168.66
2023-03-01T05:08:48.663Z,102167.78
2023-03-01T05:19:31.776Z,102162.53
2023-03-01T05:25:48.641Z,102159.31
2023-03-01T05:38:19.834Z,102162.38
2023-03-01T05:41:26.891Z,102157.25
2023-03-01T05:49:02.957Z,102153.03
2023-03-01T05:52:35.265Z,102149.31
2023-03-01T05:56:12.450Z,102145.63
2023-03-01T05:59:15.164Z,102145.72
2023-03-01T06:16:25.989Z,102150.88
2023-03-01T06:23:14.081Z,102147.09
2023-03-01T06:29:17.793Z,102146.50
2023-03-01T06:32:03.062Z,102145.47
2023-03-01T06:34:44.855Z,102141.00
2023-03-01T06:37:24.930Z,102144.88
2023-03-01T06:40:45.737Z,102149.91
2023-03-01T06:43:27.313Z,102147.50
2023-03-01T06:46:07.347Z,102138.59
2023-03-01T06:48:59.288Z,102144.81
2023-03-01T06:58:27.005Z,102150.75
2023-03-01T07:01:40.058Z,102151.28
2023-03-01T07:08:03.943Z,102144.13
2023-03-01T07:11:16.459Z,102144.84
2023-03-01T07:14:07.568Z,102140.94
2023-03-01T07:17:25.407Z,102149.69
2023-03-01T07:20:04.847Z,102160.22
2023-03-01T07:23:07.230Z,102144.75
2023-03-01T07:26:04.334Z,102151.97
2023-03-01T07:28:57.670Z,102143.94
2023-03-01T07:32:13.964Z,102147.66
2023-03-01T07:34:50.310Z,102150.09
2023-03-01T07:38:04.702Z,102153.34
2023-03-01T07:47:59.208Z,102143.09
2023-03-01T07:50:47.959Z,102138.16
2023-03-01T07:54:03.013Z,102143.03
2023-03-01T07:56:37.157Z,102140.06
2023-03-01T07:59:09.001Z,102141.00
2023-03-01T08:01:54.835Z,102129.13
2023-03-01T08:04:37.610Z,102136.50
2023-03-01T08:07:21.286Z,102134.84
2023-03-01T08:10:33.768Z,102138.66
2023-03-01T08:13:26.569Z,102131.31
2023-03-01T08:20:09.964Z,102129.91
2023-03-01T08:22:58.610Z,102129.47
2023-03-01T08:25:38.270Z,102127.53
2023-03-01T08:28:18.459Z,102121.59
2023-03-01T08:31:36.733Z,102117.22
2023-03-01T08:41:30.700Z,102109.91
2023-03-01T08:44:09.248Z,102108.13
2023-03-01T08:48:03.528Z,102106.38
2023-03-01T08:51:13.973Z,102109.13
2023-03-01T08:55:19.282Z,102103.94
2023-03-01T09:05:39.359Z,102093.41
2023-03-01T09:08:49.170Z,102091.66
2023-03-01T09:18:04.437Z,102090.75
2023-03-01T09:20:54.502Z,102087.22
2023-03-01T09:23:31.294Z,102086.34
2023-03-01T09:27:08.963Z,102085.44
2023-03-01T09:38:02.819Z,102081.03
2023-03-01T09:44:24.489Z,102074.00
2023-03-01T09:51:03.800Z,102077.44
2023-03-01T09:54:02.810Z,102079.13
2023-03-01T09:57:50.760Z,102075.59
2023-03-01T10:01:18.728Z,102080.91
2023-03-01T10:05:03.753Z,102086.16
2023-03-01T10:08:35.352Z,102079.13
2023-03-01T10:12:01.039Z,102080.94
2023-03-01T10:19:13.457Z,102089.75
2023-03-01T10:22:04.121Z,102084.28
2023-03-01T10:24:46.990Z,102084.28
2023-03-01T10:28:30.123Z,102079.81
2023-03-01T10:31:43.770Z,102083.03
2023-03-01T10:34:59.045Z,102080.72
2023-03-01T10:41:51.416Z,102060.72
2023-03-01T10:45:40.983Z,102066.19
2023-03-01T10:48:31.599Z,102064.63
2023-03-01T10:58:37.192Z,102057.28
2023-03-01T11:01:56.004Z,102047.84
2023-03-01T11:05:23.506Z,102050.59
2023-03-01T11:08:35.117Z,102043.78
2023-03-01T11:11:50.892Z,102039.09
2023-03-01T11:15:05.069Z,102044.63
2023-03-01T11:17:55.830Z,102036.16
2023-03-01T11:20:42.484Z,102037.66
2023-03-01T11:23:25.608Z,102030.69
2023-03-01T11:26:14.276Z,102024.50
2023-03-01T11:28:52.766Z,102027.94
2023-03-01T11:31:29.599Z,102024.53
2023-03-01T11:34:19.731Z,102019.94
2023-03-01T11:37:14.327Z,102016.56
2023-03-01T11:40:17.609Z,102020.28
2023-03-01T11:43:16.007Z,102015.41
2023-03-01T11:46:50.379Z,102026.69
2023-03-01T11:50:06.191Z,102018.38
2023-03-01T11:53:20.587Z,102023.38
2023-03-01T11:56:37.300Z,102019.91
2023-03-01T11:59:31.745Z,102024.53
2023-03-01T12:02:53.800Z,102020.75
2023-03-01T12:06:07.025Z,102021.06
2023-03-01T12:09:24.140Z,102018.03
2023-03-01T12:13:02.783Z,102014.56
2023-03-01T12:16:39.229Z,102000.50
2023-03-01T12:19:32.336Z,102005.25
2023-03-01T12:23:19.613Z,101998.81
2023-03-01T12:27:33.930Z,101993.13
2023-03-01T12:38:46.488Z,101976.25
2023-03-01T12:42:20.993Z,101975.19
2023-03-01T12:58:15.788Z,101950.97
2023-03-01T13:01:28.148Z,101949.06
2023-03-01T13:08:29.222Z,101938.88
2023-03-01T13:11:31.572Z,101945.16
2023-03-01T13:18:50.683Z,101947.09
2023-03-01T13:25:42.590Z,101932.28
2023-03-01T13:29:09.086Z,101928.03
2023-03-01T13:31:55.574Z,101927.34
2023-03-01T13:35:42.296Z,101919.53
2023-03-01T13:39:30.487Z,101917.50
2023-03-01T13:43:04.166Z,101913.97
2023-03-01T13:46:56.282Z,101916.47
2023-03-01T13:50:02.110Z,101899.00
2023-03-01T13:53:09.647Z,101898.69
2023-03-01T13:56:03.082Z,101896.97
2023-03-01T13:59:03.343Z,101899.56
2023-03-01T14:02:26.947Z,101893.53
2023-03-01T14:05:21.954Z,101892.72
2023-03-01T14:08:02.174Z,101890.13
2023-03-01T14:11:32.274Z,101876.16
2023-03-01T14:15:07.122Z,101866.47
2023-03-01T14:18:10.504Z,101869.97
2023-03-01T14:21:24.949Z,101866.34
2023-03-01T14:24:06.318Z,101866.28
2023-03-01T14:26:52.079Z,101861.91
2023-03-01T14:29:52.353Z,101857.53
2023-03-01T14:36:10.354Z,101860.47
2023-03-01T14:42:23.674Z,101842.25
2023-03-01T14:49:36.758Z,101841.44
2023-03-01T14:53:16.318Z,101842.25
2023-03-01T14:56:08.330Z,101831.84
2023-03-01T14:59:00.957Z,101832.75
2023-03-01T15:02:14.584Z,101837.13
2023-03-01T15:08:33.480Z,101838.63
2023-03-01T15:11:49.171Z,101835.75
2023-03-01T15:19:07.844Z,101834.81
2023-03-01T15:21:39.499Z,101833.91
2023-03-01T15:24:20.637Z,101836.50
2023-03-01T15:26:56.167Z,101834.81
2023-03-01T15:29:31.120Z,101838.16
2023-03-01T15:32:32.071Z,101834.34
2023-03-01T15:35:01.904Z,101835.19
2023-03-01T15:37:49.530Z,101847.16
2023-03-01T15:40:32.169Z,101833.19
2023-03-01T15:43:05.522Z,101838.31
2023-03-01T15:45:39.523Z,101838.19
2023-03-01T15:48:21.052Z,101835.44
2023-03-01T15:50:56.765Z,101824.81
2023-03-01T15:53:23.633Z,101831.53
2023-03-01T15:55:51.321Z,101829.63
2023-03-01T15:58:24.944Z,101825.13
2023-03-01T16:01:01.914Z,101822.47
2023-03-01T16:03:31.333Z,101822.28
2023-03-01T16:05:58.312Z,101828.16
2023-03-01T16:08:25.220Z,101821.13
2023-03-01T16:10:52.529Z,101817.47
2023-03-01T16:13:20.277Z,101810.38
2023-03-01T16:15:47.259Z,101813.66
2023-03-01T16:18:14.132Z,101810.00
2023-03-01T16:20:41.320Z,101802.81
2023-03-01T16:23:09.766Z,101807.81
2023-03-01T16:25:37.119Z,101806.78
2023-03-01T16:28:09.687Z,101805.66
2023-03-01T16:30:38.707Z,101799.28
2023-03-01T16:33:23.029Z,101795.56
2023-03-01T16:35:52.750Z,101796.09
2023-03-01T16:38:19.661Z,101795.84
2023-03-01T16:40:50.573Z,101811.16
2023-03-01T16:43:17.488Z,101806.53
2023-03-01T16:45:45.920Z,101818.47
2023-03-01T16:48:13.371Z,101814.75
2023-03-01T16:50:42.125Z,101811.84
2023-03-01T16:53:09.155Z,101821.03
2023-03-01T16:55:36.130Z,101819.13
2023-03-01T16:58:03.587Z,101822.47
2023-03-01T17:00:30.545Z,101818.84
2023-03-01T17:02:57.520Z,101823.75
2023-03-01T17:05:25.607Z,101820.88
2023-03-01T17:07:52.594Z,101824.97
2023-03-01T17:10:19.589Z,101827.19
2023-03-01T17:12:50.736Z,101829.56
2023-03-01T17:15:17.940Z,101830.25
2023-03-01T17:17:44.965Z,101830.91
2023-03-01T17:20:12.433Z,101827.34
2023-03-01T17:22:39.344Z,101827.22
2023-03-01T17:25:10.272Z,101822.94
2023-03-01T17:27:38.988Z,101837.59
2023-03-01T17:30:11.735Z,101840.91
2023-03-01T17:32:39.259Z,101834.63
2023-03-01T17:35:08.023Z,101832.69
2023-03-01T17:37:37.000Z,101829.97
2023-03-01T17:40:04.533Z,101829.97
2023-03-01T17:42:31.487Z,101829.16
2023-03-01T17:44:58.477Z,101824.69
2023-03-01T17:47:25.452Z,101837.59
2023-03-01T17:49:52.362Z,101838.41
2023-03-01T17:52:23.718Z,101835.56
2023-03-01T17:54:51.426Z,101843.19
2023-03-01T17:57:18.561Z,101836.03
2023-03-01T17:59:45.499Z,101844.41
2023-03-01T18:02:15.554Z,101842.41
2023-03-01T18:04:42.456Z,101837.81
2023-03-01T18:07:09.398Z,101845.44
2023-03-01T18:09:36.323Z,101850.38
2023-03-01T18:12:03.254Z,101849.34
2023-03-01T18:14:33.811Z,101843.13
2023-03-01T18:17:06.639Z,101842.06
2023-03-01T18:19:34.168Z,101845.31
2023-03-01T18:22:01.075Z,101844.28
2023-03-01T18:24:28.013Z,101844.13
2023-03-01T18:26:54.897Z,101835.22
2023-03-01T18:29:21.837Z,101836.69
2023-03-01T18:31:49.034Z,101836.38
2023-03-01T18:34:16.147Z,101839.53
2023-03-01T18:36:47.836Z,101842.84
2023-03-01T18:39:20.479Z,101839.16
2023-03-01T18:41:47.441Z,101851.84
2023-03-01T18:44:14.405Z,101841.31
2023-03-01T18:46:41.456Z,101833.47
2023-03-01T18:49:09.227Z,101842.03
2023-03-01T18:51:36.238Z,101850.78
2023-03-01T18:54:03.388Z,101838.91
2023-03-01T18:56:32.459Z,101835.41
2023-03-01T18:59:00.647Z,101846.81
2023-03-01T19:01:30.840Z,101845.03
2023-03-01T19:03:58.719Z,101844.97
2023-03-01T19:06:31.745Z,101843.81
2023-03-01T19:08:59.173Z,101842.72
2023-03-01T19:11:31.093Z,101842.47
2023-03-01T19:13:59.200Z,101845.59
2023-03-01T19:16:30.227Z,101840.03
2023-03-01T19:19:00.331Z,101848.44
2023-03-01T19:21:30.467Z,101833.72
2023-03-01T19:23:59.124Z,101846.66
2023-03-01T19:26:28.092Z,101837.19
2023-03-01T19:28:56.411Z,101838.78
2023-03-01T19:31:26.786Z,101843.84
2023-03-01T19:34:09.939Z,101846.88
2023-03-01T19:36:41.717Z,101843.00
2023-03-01T19:39:11.312Z,101849.59
2023-03-01T19:41:38.240Z,101854.69
2023-03-01T19:44:05.973Z,101861.47
2023-03-01T19:46:34.158Z,101871.72
2023-03-01T19:49:03.347Z,101861.19
2023-03-01T19:51:33.315Z,101869.63
2023-03-01T19:54:00.277Z,101861.59
2023-03-01T19:56:27.340Z,101861.41
2023-03-01T19:59:00.203Z,101866.41
2023-03-01T20:01:29.748Z,101863.69
2023-03-01T20:03:56.946Z,101854.84
2023-03-01T20:06:25.748Z,101855.38
2023-03-01T20:08:52.797Z,101855.16
2023-03-01T20:11:20.497Z,101854.00
2023-03-01T20:13:47.617Z,101856.31
2023-03-01T20:16:20.627Z,101857.66
2023-03-01T20:18:47.721Z,101865.84
2023-03-01T20:21:23.923Z,101868.09
2023-03-01T20:23:51.934Z,101865.06
2023-03-01T20:26:20.361Z,101869.06
2023-03-01T20:28:53.827Z,101868.72
2023-03-01T20:31:23.982Z,101870.22
2023-03-01T20:33:50.897Z,101868.44
2023-03-01T20:36:17.776Z,101866.84
2023-03-01T20:38:44.688Z,101863.47
2023-03-01T20:41:13.568Z,101865.94
2023-03-01T20:43:42.415Z,101858.09
2023-03-01T20:46:13.488Z,101858.81
2023-03-01T20:48:43.102Z,101860.34
2023-03-01T20:51:12.848Z,101856.88
2023-03-01T20:53:40.616Z,101849.03
2023-03-01T20:56:14.555Z,101854.00
2023-03-01T20:58:42.399Z,101843.59
2023-03-01T21:01:13.434Z,101841.72
2023-03-01T21:03:40.431Z,101846.78
2023-03-01T21:06:07.360Z,101845.00
2023-03-01T21:08:36.263Z,101844.91
2023-03-01T21:11:06.258Z,101845.66
2023-03-01T21:13:34.701Z,101841.91
2023-03-01T21:16:07.819Z,101844.19
2023-03-01T21:18:36.897Z,101837.09
2023-03-01T21:21:20.273Z,101839.38
2023-03-01T21:23:47.772Z,101852.97
2023-03-01T21:26:21.626Z,101838.31
2023-03-01T21:28:54.377Z,101850.22
2023-03-01T21:31:25.035Z,101850.13
2023-03-01T21:33:56.099Z,101846.66
2023-03-01T21:36:25.856Z,101841.50
2023-03-01T21:38:53.390Z,101839.00
2023-03-01T21:41:27.048Z,101842.56
2023-03-01T21:43:57.423Z,101845.94
2023-03-01T21:46:26.185Z,101840.78
2023-03-01T21:48:54.851Z,101840.78
2023-03-01T21:51:26.163Z,101833.03
2023-03-01T21:53:55.675Z,101839.78
2023-03-01T21:56:26.828Z,101837.13
2023-03-01T21:58:54.439Z,101840.59
2023-03-01T22:01:26.042Z,101828.50
2023-03-01T22:03:53.978Z,101832.06
2023-03-01T22:06:29.509Z,101836.53
2023-03-01T22:09:05.812Z,101835.81
2023-03-01T22:11:35.745Z,101833.25
2023-03-01T22:14:04.646Z,101828.88
2023-03-01T22:16:34.716Z,101831.34
2023-03-01T22:19:02.997Z,101838.13
2023-03-01T22:21:30.039Z,101843.19
2023-03-01T22:23:57.506Z,101836.16
2023-03-01T22:26:35.855Z,101829.03
2023-03-01T22:29:08.246Z,101834.69
2023-03-01T22:31:35.506Z,101837.03
2023-03-01T22:34:03.689Z,101827.31
2023-03-01T22:36:31.017Z,101825.34
2023-03-01T22:39:02.064Z,101824.25
2023-03-01T22:41:44.974Z,101838.56
2023-03-01T22:44:14.255Z,101832.53
2023-03-01T22:46:42.416Z,101828.16
2023-03-01T22:49:10.484Z,101822.00
2023-03-01T22:51:40.854Z,101822.00
2023-03-01T22:54:09.462Z,101813.38
2023-03-01T22:56:38.372Z,101826.19
2023-03-01T22:59:09.577Z,101817.56
2023-03-01T23:01:38.988Z,101815.88
2023-03-01T23:04:06.525Z,101818.63
2023-03-01T23:06:34.504Z,101813.47
2023-03-01T23:09:04.475Z,101816.84
2023-03-01T23:11:31.820Z,101814.19
2023-03-01T23:13:59.943Z,101819.34
2023-03-01T23:16:27.072Z,101807.34
2023-03-01T23:19:00.820Z,101801.38
2023-03-01T23:21:28.097Z,101804.97
2023-03-01T23:23:56.195Z,101802.47
2023-03-01T23:26:26.948Z,101799.09
2023-03-01T23:28:55.170Z,101797.47
2023-03-01T23:31:22.194Z,101787.09
2023-03-01T23:33:49.609Z,101789.59
2023-03-01T23:36:29.129Z,101788.69
2023-03-01T23:39:05.820Z,101787.91
2023-03-01T23:41:34.622Z,101776.69
2023-03-01T23:44:04.097Z,101789.50
2023-03-01T23:46:35.701Z,101778.97
2023-03-01T23:49:03.307Z,101785.72
2023-03-01T23:51:30.247Z,101779.50
2023-03-01T23:54:00.999Z,101777.66
2023-03-01T23:56:33.689Z,101775.75
2023-03-01T23:59:05.320Z,101769.53
